• Join FlightAware (Why Join?)
  • Login
  • US Flag 
10:05PM EDT


 

Airport Tracker/Info


-or-


 

Live Flight TrackerFlight Track Log ✈ N605SA ✈ 19-Jul-2013 ✈ KMKE - KCMH

Flight Track Log - Related Links

Times and Time Zones

All times are in EDT time to prevent confusion due to time zone crossing. See the N605SA flight status page for this flight to view local times or setup timezone preferences in your user account.

Time Position Orientation Groundspeed Altitude Reporting Facility
EDT Latitude Longitude Course Direction KTS MPH feet Rate Location/Type
03:02PM 42.9333 -87.9167 244° Southwest 171 197 1,400  Level KMKE
03:03PM 42.9231 -87.9456 244° Southwest 179 206 2,100 2,100 Climbing Chicago Center
03:04PM 42.8636 -87.8794 141° Southeast 276 318 4,900 2,700 Climbing Chicago Center
03:05PM 42.8225 -87.7850 121° Southeast 292 336 7,800 2,460 Climbing Chicago Center
03:06PM 42.7586 -87.7103 139° Southeast 299 344 10,000 2,160 Climbing Chicago Center
03:07PM 42.6975 -87.6158 131° Southeast 324 373 12,300 2,220 Climbing Chicago Center
03:08PM 42.6339 -87.5169 131° Southeast 341 392 14,600 2,160 Climbing Chicago Center
03:09PM 42.5558 -87.4017 133° Southeast 358 412 16,800 1,860 Climbing Chicago Center
03:10PM 42.4831 -87.2964 133° Southeast 378 435 18,500 1,620 Climbing Chicago Center
03:11PM 42.4086 -87.1897 133° Southeast 388 447 20,200 1,560 Climbing Chicago Center
03:12PM 42.3333 -87.0811 133° Southeast 395 455 21,800 1,560 Climbing Chicago Center
03:13PM 42.2617 -86.9664 130° Southeast 400 460 23,500 1,680 Climbing Chicago Center
03:14PM 42.1761 -86.8281 130° Southeast 401 461 25,300 1,620 Climbing Chicago Center
03:15PM 42.1042 -86.7164 131° Southeast 398 458 26,900 1,320 Climbing Chicago Center
03:16PM 42.0369 -86.6106 131° Southeast 396 456 28,100 960 Climbing Chicago Center
03:18PM 41.9661 -86.4947 129° Southeast 400 460 29,000 420 Climbing Chicago Center
03:19PM 41.8872 -86.3756 132° Southeast 418 481 29,000  Level Chicago Center
03:20PM 41.7828 -86.2342 135° Southeast 440 506 29,000  Level Chicago Center
03:21PM 41.6894 -86.1158 137° Southeast 456 525 29,000  Level Chicago Center
03:22PM 41.5981 -85.9931 135° Southeast 467 537 29,000  Level Chicago Center
03:23PM 41.5083 -85.8775 136° Southeast 458 527 29,000  Level Chicago Center
03:24PM 41.4056 -85.7419 135° Southeast 441 507 29,000  Level Chicago Center
03:25PM 41.3214 -85.6306 135° Southeast 434 499 29,000  Level Chicago Center
03:26PM 41.2372 -85.5203 135° Southeast 431 496 29,000  Level Chicago Center
03:27PM 41.1531 -85.4133 136° Southeast 425 489 29,000  Level Chicago Center
03:28PM 41.0686 -85.3053 136° Southeast 426 490 29,000 -900 Level Chicago Center
03:29PM 40.9722 -85.1611 131° Southeast 440 506 27,200 -1,800 Descending Chicago Center
03:30PM 40.9219 -85.0081 113° Southeast 457 526 25,300 -1,800 Descending Chicago Center
03:31PM 40.8775 -84.8592 112° Southeast 442 509 23,500 -1,200 Descending Chicago Center
03:32PM 40.8333 -84.7208 113° Southeast 432 497 23,000 -300 Descending Indianapolis Center
03:33PM 40.7881 -84.5719 112° Southeast 435 501 23,000 -660 Level Indianapolis Center
03:34PM 40.7419 -84.4222 112° Southeast 437 503 21,700 -1,380 Descending Indianapolis Center
03:35PM 40.6967 -84.2753 112° Southeast 431 496 20,200 -1,500 Descending Indianapolis Center
03:36PM 40.6503 -84.1322 113° Southeast 420 483 18,700 -1,500 Descending Indianapolis Center
03:37PM 40.6058 -83.9919 113° Southeast 413 475 17,200 -2,040 Descending Indianapolis Center
03:38PM 40.5636 -83.8578 112° Southeast 399 459 14,600 -2,520 Descending Indianapolis Center
03:39PM 40.5178 -83.7200 114° Southeast 379 436 12,300 -1,800 Descending Indianapolis Center
03:40PM 40.4739 -83.5789 112° Southeast 380 437 11,000 -780 Descending Indianapolis Center
03:41PM 40.4444 -83.5064 118° Southeast 378 435 11,000 -480 Level Indianapolis Center
03:42PM 40.3914 -83.3847 120° Southeast 367 422 10,300 -1,080 Descending Indianapolis Center
03:43PM 40.3422 -83.2639 118° Southeast 313 360 8,700 -1,440 Descending Indianapolis Center
03:44PM 40.3044 -83.1753 119° Southeast 297 342 7,300 -1,440 Descending Indianapolis Center
03:45PM 40.2631 -83.0808 120° Southeast 296 341 6,000 -720 Descending Indianapolis Center
03:46PM 40.2306 -83.0042 119° Southeast 292 336 6,000  Level Indianapolis Center
03:46PM 40.2111 -82.9578 119° Southeast 294 338 6,000 -600 Level Indianapolis Center
03:47PM 40.1672 -82.8633 121° Southeast 299 344 5,100 -1,200 Descending Indianapolis Center
03:48PM 40.1178 -82.7836 129° Southeast 283 326 3,600 -1,020 Descending Indianapolis Center
03:49PM 40.0483 -82.7558 163° South 238 274 3,000 -540 Descending Indianapolis Center
03:50PM 40.0128 -82.7958 221° Southwest 188 216 2,500 -840 Descending Indianapolis Center
03:51PM 39.9886 -82.8372 233° Southwest 159 183 1,300 -720 Descending Indianapolis Center
03:52PM 39.9983 -82.8964 282° West 153 176 1,100 -240 Descending Indianapolis Center